sensor_id;sensor_type;location;lat;lon;timestamp;P1;durP1;ratioP1;P2;durP2;ratioP2
63370;SDS011;49504;48.336;14.472;2023-06-22T00:02:28;4.35;;;1.80;;
63370;SDS011;49504;48.336;14.472;2023-06-22T00:05:49;4.28;;;1.90;;
63370;SDS011;49504;48.336;14.472;2023-06-22T00:10:48;3.97;;;1.70;;
63370;SDS011;49504;48.336;14.472;2023-06-22T00:14:09;3.85;;;1.60;;
63370;SDS011;49504;48.336;14.472;2023-06-22T00:17:30;4.78;;;1.90;;
63370;SDS011;49504;48.336;14.472;2023-06-22T00:20:51;4.57;;;2.05;;
63370;SDS011;49504;48.336;14.472;2023-06-22T00:24:12;4.05;;;1.80;;
63370;SDS011;49504;48.336;14.472;2023-06-22T00:27:35;4.57;;;1.80;;
63370;SDS011;49504;48.336;14.472;2023-06-22T00:30:56;3.97;;;1.60;;
63370;SDS011;49504;48.336;14.472;2023-06-22T00:34:19;5.03;;;1.35;;
63370;SDS011;49504;48.336;14.472;2023-06-22T00:39:22;3.53;;;1.50;;
63370;SDS011;49504;48.336;14.472;2023-06-22T00:42:45;3.47;;;1.55;;
63370;SDS011;49504;48.336;14.472;2023-06-22T00:47:15;4.95;;;1.63;;
63370;SDS011;49504;48.336;14.472;2023-06-22T00:50:37;4.57;;;1.80;;
63370;SDS011;49504;48.336;14.472;2023-06-22T00:53:59;3.13;;;1.40;;
63370;SDS011;49504;48.336;14.472;2023-06-22T00:57:21;3.70;;;1.60;;
63370;SDS011;49504;48.336;14.472;2023-06-22T01:00:44;4.30;;;2.00;;
63370;SDS011;49504;48.336;14.472;2023-06-22T01:04:07;4.63;;;2.28;;
63370;SDS011;49504;48.336;14.472;2023-06-22T01:07:29;3.55;;;1.48;;
63370;SDS011;49504;48.336;14.472;2023-06-22T01:11:00;4.63;;;2.00;;
63370;SDS011;49504;48.336;14.472;2023-06-22T01:14:28;3.38;;;1.52;;
63370;SDS011;49504;48.336;14.472;2023-06-22T01:17:56;4.40;;;1.75;;
63370;SDS011;49504;48.336;14.472;2023-06-22T01:21:21;4.07;;;1.38;;
63370;SDS011;49504;48.336;14.472;2023-06-22T01:24:52;4.00;;;1.45;;
63370;SDS011;49504;48.336;14.472;2023-06-22T01:28:33;4.45;;;1.60;;
63370;SDS011;49504;48.336;14.472;2023-06-22T01:32:06;4.43;;;1.80;;
63370;SDS011;49504;48.336;14.472;2023-06-22T01:35:29;4.10;;;2.00;;
63370;SDS011;49504;48.336;14.472;2023-06-22T01:38:50;3.30;;;1.35;;
63370;SDS011;49504;48.336;14.472;2023-06-22T01:42:13;4.25;;;1.88;;
63370;SDS011;49504;48.336;14.472;2023-06-22T01:45:36;4.38;;;1.77;;
63370;SDS011;49504;48.336;14.472;2023-06-22T01:48:57;3.53;;;1.50;;
63370;SDS011;49504;48.336;14.472;2023-06-22T01:52:18;4.95;;;1.70;;
63370;SDS011;49504;48.336;14.472;2023-06-22T01:55:40;3.35;;;1.45;;
63370;SDS011;49504;48.336;14.472;2023-06-22T01:59:03;4.70;;;1.70;;
63370;SDS011;49504;48.336;14.472;2023-06-22T02:02:40;3.70;;;1.65;;
63370;SDS011;49504;48.336;14.472;2023-06-22T02:06:08;3.80;;;1.60;;
63370;SDS011;49504;48.336;14.472;2023-06-22T02:09:40;3.83;;;1.50;;
63370;SDS011;49504;48.336;14.472;2023-06-22T02:13:05;3.38;;;1.50;;
63370;SDS011;49504;48.336;14.472;2023-06-22T02:16:28;3.67;;;1.63;;
63370;SDS011;49504;48.336;14.472;2023-06-22T02:19:52;4.28;;;1.35;;
63370;SDS011;49504;48.336;14.472;2023-06-22T02:23:14;4.68;;;1.80;;
63370;SDS011;49504;48.336;14.472;2023-06-22T02:26:35;3.78;;;1.67;;
63370;SDS011;49504;48.336;14.472;2023-06-22T02:29:57;3.75;;;1.55;;
63370;SDS011;49504;48.336;14.472;2023-06-22T02:33:19;4.93;;;1.73;;
63370;SDS011;49504;48.336;14.472;2023-06-22T02:36:42;3.47;;;1.55;;
63370;SDS011;49504;48.336;14.472;2023-06-22T02:40:03;5.10;;;1.70;;
63370;SDS011;49504;48.336;14.472;2023-06-22T02:43:26;3.75;;;1.33;;
63370;SDS011;49504;48.336;14.472;2023-06-22T02:46:47;3.35;;;1.50;;
63370;SDS011;49504;48.336;14.472;2023-06-22T02:50:10;4.95;;;1.67;;
63370;SDS011;49504;48.336;14.472;2023-06-22T02:53:32;3.85;;;1.42;;
63370;SDS011;49504;48.336;14.472;2023-06-22T02:56:54;4.60;;;1.77;;
63370;SDS011;49504;48.336;14.472;2023-06-22T03:00:16;3.58;;;1.48;;
63370;SDS011;49504;48.336;14.472;2023-06-22T03:03:39;4.10;;;1.55;;
63370;SDS011;49504;48.336;14.472;2023-06-22T03:07:00;3.75;;;1.60;;
63370;SDS011;49504;48.336;14.472;2023-06-22T03:10:24;4.25;;;1.80;;
63370;SDS011;49504;48.336;14.472;2023-06-22T03:13:45;3.25;;;1.30;;
63370;SDS011;49504;48.336;14.472;2023-06-22T03:17:06;4.95;;;1.70;;
63370;SDS011;49504;48.336;14.472;2023-06-22T03:20:27;3.92;;;1.40;;
63370;SDS011;49504;48.336;14.472;2023-06-22T03:23:49;3.70;;;1.42;;
63370;SDS011;49504;48.336;14.472;2023-06-22T03:27:12;4.43;;;1.45;;
63370;SDS011;49504;48.336;14.472;2023-06-22T03:30:34;3.30;;;1.60;;
63370;SDS011;49504;48.336;14.472;2023-06-22T03:33:55;4.53;;;1.58;;
63370;SDS011;49504;48.336;14.472;2023-06-22T03:37:17;4.03;;;1.27;;
63370;SDS011;49504;48.336;14.472;2023-06-22T03:40:39;3.38;;;1.35;;
63370;SDS011;49504;48.336;14.472;2023-06-22T03:44:01;3.13;;;1.30;;
63370;SDS011;49504;48.336;14.472;2023-06-22T03:47:23;3.67;;;1.30;;
63370;SDS011;49504;48.336;14.472;2023-06-22T03:50:44;3.58;;;1.50;;
63370;SDS011;49504;48.336;14.472;2023-06-22T03:54:06;3.63;;;1.23;;
63370;SDS011;49504;48.336;14.472;2023-06-22T03:57:27;3.28;;;1.45;;
63370;SDS011;49504;48.336;14.472;2023-06-22T04:00:50;3.50;;;1.50;;
63370;SDS011;49504;48.336;14.472;2023-06-22T04:04:12;3.35;;;1.33;;
63370;SDS011;49504;48.336;14.472;2023-06-22T04:07:33;3.83;;;1.38;;
63370;SDS011;49504;48.336;14.472;2023-06-22T04:10:55;3.90;;;1.70;;
63370;SDS011;49504;48.336;14.472;2023-06-22T04:14:19;3.58;;;1.30;;
63370;SDS011;49504;48.336;14.472;2023-06-22T04:17:41;3.58;;;1.27;;
63370;SDS011;49504;48.336;14.472;2023-06-22T04:21:03;4.50;;;1.48;;
63370;SDS011;49504;48.336;14.472;2023-06-22T04:24:25;4.13;;;1.63;;
63370;SDS011;49504;48.336;14.472;2023-06-22T04:27:46;4.30;;;1.85;;
63370;SDS011;49504;48.336;14.472;2023-06-22T04:31:07;4.80;;;2.10;;
63370;SDS011;49504;48.336;14.472;2023-06-22T04:34:30;5.25;;;2.20;;
63370;SDS011;49504;48.336;14.472;2023-06-22T04:37:52;4.15;;;1.73;;
63370;SDS011;49504;48.336;14.472;2023-06-22T04:41:13;4.55;;;1.90;;
63370;SDS011;49504;48.336;14.472;2023-06-22T04:44:35;5.13;;;1.92;;
63370;SDS011;49504;48.336;14.472;2023-06-22T04:47:56;7.65;;;2.13;;
63370;SDS011;49504;48.336;14.472;2023-06-22T04:51:18;6.93;;;2.08;;
63370;SDS011;49504;48.336;14.472;2023-06-22T04:54:40;6.07;;;2.20;;
63370;SDS011;49504;48.336;14.472;2023-06-22T04:58:01;4.13;;;1.92;;
63370;SDS011;49504;48.336;14.472;2023-06-22T05:01:22;4.82;;;2.17;;
63370;SDS011;49504;48.336;14.472;2023-06-22T05:04:43;5.03;;;1.85;;
63370;SDS011;49504;48.336;14.472;2023-06-22T05:08:06;7.55;;;1.95;;
63370;SDS011;49504;48.336;14.472;2023-06-22T05:11:27;4.30;;;2.10;;
63370;SDS011;49504;48.336;14.472;2023-06-22T05:14:48;4.50;;;1.95;;
63370;SDS011;49504;48.336;14.472;2023-06-22T05:18:10;7.68;;;2.03;;
63370;SDS011;49504;48.336;14.472;2023-06-22T05:21:31;4.82;;;1.90;;
63370;SDS011;49504;48.336;14.472;2023-06-22T05:24:54;4.07;;;1.88;;
63370;SDS011;49504;48.336;14.472;2023-06-22T05:28:15;5.65;;;2.08;;
63370;SDS011;49504;48.336;14.472;2023-06-22T05:31:36;4.82;;;1.88;;
63370;SDS011;49504;48.336;14.472;2023-06-22T05:34:58;6.53;;;2.17;;
63370;SDS011;49504;48.336;14.472;2023-06-22T05:38:19;6.25;;;2.38;;
63370;SDS011;49504;48.336;14.472;2023-06-22T05:41:42;6.80;;;2.17;;
63370;SDS011;49504;48.336;14.472;2023-06-22T05:45:06;5.53;;;2.33;;
63370;SDS011;49504;48.336;14.472;2023-06-22T05:48:28;4.35;;;1.83;;
63370;SDS011;49504;48.336;14.472;2023-06-22T05:51:49;5.53;;;2.05;;
63370;SDS011;49504;48.336;14.472;2023-06-22T05:55:10;4.20;;;1.75;;
63370;SDS011;49504;48.336;14.472;2023-06-22T05:58:33;5.03;;;2.15;;
63370;SDS011;49504;48.336;14.472;2023-06-22T06:01:55;5.00;;;1.50;;
63370;SDS011;49504;48.336;14.472;2023-06-22T06:05:16;4.45;;;1.98;;
63370;SDS011;49504;48.336;14.472;2023-06-22T06:08:37;4.80;;;2.13;;
63370;SDS011;49504;48.336;14.472;2023-06-22T06:11:58;4.38;;;1.80;;
63370;SDS011;49504;48.336;14.472;2023-06-22T06:15:21;6.60;;;2.33;;
63370;SDS011;49504;48.336;14.472;2023-06-22T06:18:42;5.88;;;2.17;;
63370;SDS011;49504;48.336;14.472;2023-06-22T06:22:03;3.80;;;1.77;;
63370;SDS011;49504;48.336;14.472;2023-06-22T06:25:24;4.00;;;1.83;;
63370;SDS011;49504;48.336;14.472;2023-06-22T06:28:46;5.47;;;1.63;;
63370;SDS011;49504;48.336;14.472;2023-06-22T06:32:08;5.82;;;2.10;;
63370;SDS011;49504;48.336;14.472;2023-06-22T06:35:29;6.30;;;2.10;;
63370;SDS011;49504;48.336;14.472;2023-06-22T06:38:51;5.10;;;2.10;;
63370;SDS011;49504;48.336;14.472;2023-06-22T06:42:12;4.53;;;1.80;;
63370;SDS011;49504;48.336;14.472;2023-06-22T06:45:34;5.30;;;2.28;;
63370;SDS011;49504;48.336;14.472;2023-06-22T06:48:57;5.38;;;2.38;;
63370;SDS011;49504;48.336;14.472;2023-06-22T06:52:18;5.13;;;2.38;;
63370;SDS011;49504;48.336;14.472;2023-06-22T06:55:39;4.70;;;2.05;;
63370;SDS011;49504;48.336;14.472;2023-06-22T06:59:00;4.53;;;1.70;;
63370;SDS011;49504;48.336;14.472;2023-06-22T07:02:21;5.07;;;1.90;;
63370;SDS011;49504;48.336;14.472;2023-06-22T07:05:44;5.65;;;1.90;;
63370;SDS011;49504;48.336;14.472;2023-06-22T07:09:05;4.38;;;1.98;;
63370;SDS011;49504;48.336;14.472;2023-06-22T07:12:26;4.47;;;1.60;;
63370;SDS011;49504;48.336;14.472;2023-06-22T07:15:47;5.03;;;1.95;;
63370;SDS011;49504;48.336;14.472;2023-06-22T07:19:10;4.55;;;2.20;;
63370;SDS011;49504;48.336;14.472;2023-06-22T07:22:33;5.47;;;2.03;;
63370;SDS011;49504;48.336;14.472;2023-06-22T07:25:54;4.53;;;1.90;;
63370;SDS011;49504;48.336;14.472;2023-06-22T07:29:16;4.40;;;2.05;;
63370;SDS011;49504;48.336;14.472;2023-06-22T07:32:38;4.22;;;1.85;;
63370;SDS011;49504;48.336;14.472;2023-06-22T07:35:59;3.65;;;1.42;;
63370;SDS011;49504;48.336;14.472;2023-06-22T07:39:22;4.03;;;1.77;;
63370;SDS011;49504;48.336;14.472;2023-06-22T07:43:02;4.43;;;1.90;;
63370;SDS011;49504;48.336;14.472;2023-06-22T07:46:23;4.95;;;2.05;;
63370;SDS011;49504;48.336;14.472;2023-06-22T07:49:44;3.50;;;1.33;;
63370;SDS011;49504;48.336;14.472;2023-06-22T07:53:05;5.35;;;1.42;;
63370;SDS011;49504;48.336;14.472;2023-06-22T07:56:26;4.45;;;2.08;;
63370;SDS011;49504;48.336;14.472;2023-06-22T07:59:49;4.88;;;2.20;;
63370;SDS011;49504;48.336;14.472;2023-06-22T08:03:10;4.18;;;1.88;;
63370;SDS011;49504;48.336;14.472;2023-06-22T08:06:31;3.72;;;1.77;;
63370;SDS011;49504;48.336;14.472;2023-06-22T08:09:52;4.32;;;2.10;;
63370;SDS011;49504;48.336;14.472;2023-06-22T08:13:13;4.13;;;2.00;;
63370;SDS011;49504;48.336;14.472;2023-06-22T08:16:36;4.63;;;2.10;;
63370;SDS011;49504;48.336;14.472;2023-06-22T08:19:57;4.72;;;2.00;;
63370;SDS011;49504;48.336;14.472;2023-06-22T08:23:18;3.78;;;1.60;;
63370;SDS011;49504;48.336;14.472;2023-06-22T08:26:39;4.45;;;1.92;;
63370;SDS011;49504;48.336;14.472;2023-06-22T08:30:00;4.55;;;1.77;;
63370;SDS011;49504;48.336;14.472;2023-06-22T08:33:24;3.90;;;1.52;;
63370;SDS011;49504;48.336;14.472;2023-06-22T08:36:45;4.07;;;1.88;;
63370;SDS011;49504;48.336;14.472;2023-06-22T08:40:07;4.13;;;1.58;;
63370;SDS011;49504;48.336;14.472;2023-06-22T08:43:30;4.03;;;1.63;;
63370;SDS011;49504;48.336;14.472;2023-06-22T08:46:51;5.40;;;1.77;;
63370;SDS011;49504;48.336;14.472;2023-06-22T08:50:13;4.03;;;1.80;;
63370;SDS011;49504;48.336;14.472;2023-06-22T08:53:35;3.65;;;1.48;;
63370;SDS011;49504;48.336;14.472;2023-06-22T08:56:56;4.50;;;2.00;;
63370;SDS011;49504;48.336;14.472;2023-06-22T09:00:17;5.72;;;1.65;;
63370;SDS011;49504;48.336;14.472;2023-06-22T09:03:39;4.72;;;2.05;;
63370;SDS011;49504;48.336;14.472;2023-06-22T09:07:02;4.13;;;2.03;;
63370;SDS011;49504;48.336;14.472;2023-06-22T09:10:23;3.50;;;1.42;;
63370;SDS011;49504;48.336;14.472;2023-06-22T09:13:45;4.00;;;1.90;;
63370;SDS011;49504;48.336;14.472;2023-06-22T09:17:06;5.05;;;1.70;;
63370;SDS011;49504;48.336;14.472;2023-06-22T09:20:27;3.47;;;1.50;;
63370;SDS011;49504;48.336;14.472;2023-06-22T09:23:50;3.95;;;1.75;;
63370;SDS011;49504;48.336;14.472;2023-06-22T09:27:11;3.90;;;1.48;;
63370;SDS011;49504;48.336;14.472;2023-06-22T09:30:32;4.00;;;1.80;;
63370;SDS011;49504;48.336;14.472;2023-06-22T09:33:54;3.92;;;1.63;;
63370;SDS011;49504;48.336;14.472;2023-06-22T09:37:15;4.22;;;1.98;;
63370;SDS011;49504;48.336;14.472;2023-06-22T09:40:37;4.55;;;1.90;;
63370;SDS011;49504;48.336;14.472;2023-06-22T09:43:58;4.25;;;1.77;;
63370;SDS011;49504;48.336;14.472;2023-06-22T09:47:19;3.58;;;1.45;;
63370;SDS011;49504;48.336;14.472;2023-06-22T09:50:41;4.32;;;1.95;;
63370;SDS011;49504;48.336;14.472;2023-06-22T09:54:02;5.07;;;1.83;;
63370;SDS011;49504;48.336;14.472;2023-06-22T09:57:24;3.90;;;1.60;;
63370;SDS011;49504;48.336;14.472;2023-06-22T10:00:45;4.18;;;1.92;;
63370;SDS011;49504;48.336;14.472;2023-06-22T10:04:06;4.03;;;2.00;;
63370;SDS011;49504;48.336;14.472;2023-06-22T10:07:28;4.15;;;1.92;;
63370;SDS011;49504;48.336;14.472;2023-06-22T10:10:49;3.22;;;1.38;;
63370;SDS011;49504;48.336;14.472;2023-06-22T10:14:11;4.43;;;1.98;;
63370;SDS011;49504;48.336;14.472;2023-06-22T10:17:32;3.63;;;1.70;;
63370;SDS011;49504;48.336;14.472;2023-06-22T10:20:53;3.58;;;1.60;;
63370;SDS011;49504;48.336;14.472;2023-06-22T10:24:15;5.25;;;2.00;;
63370;SDS011;49504;48.336;14.472;2023-06-22T10:27:36;4.05;;;1.95;;
63370;SDS011;49504;48.336;14.472;2023-06-22T10:30:58;4.63;;;1.90;;
63370;SDS011;49504;48.336;14.472;2023-06-22T10:34:19;4.75;;;1.70;;
63370;SDS011;49504;48.336;14.472;2023-06-22T10:37:41;3.72;;;1.67;;
63370;SDS011;49504;48.336;14.472;2023-06-22T10:41:03;4.05;;;1.67;;
63370;SDS011;49504;48.336;14.472;2023-06-22T10:44:24;3.00;;;1.33;;
63370;SDS011;49504;48.336;14.472;2023-06-22T10:47:46;3.78;;;1.85;;
63370;SDS011;49504;48.336;14.472;2023-06-22T10:51:07;3.85;;;1.48;;
63370;SDS011;49504;48.336;14.472;2023-06-22T10:54:29;4.00;;;2.20;;
63370;SDS011;49504;48.336;14.472;2023-06-22T10:57:50;3.95;;;1.73;;
63370;SDS011;49504;48.336;14.472;2023-06-22T11:01:11;3.97;;;1.90;;
63370;SDS011;49504;48.336;14.472;2023-06-22T11:04:33;3.28;;;1.48;;
63370;SDS011;49504;48.336;14.472;2023-06-22T11:07:54;3.85;;;1.98;;
63370;SDS011;49504;48.336;14.472;2023-06-22T11:11:15;3.65;;;1.77;;
63370;SDS011;49504;48.336;14.472;2023-06-22T11:14:37;3.58;;;1.23;;
63370;SDS011;49504;48.336;14.472;2023-06-22T11:17:59;4.35;;;1.50;;
63370;SDS011;49504;48.336;14.472;2023-06-22T11:21:22;3.00;;;1.20;;
63370;SDS011;49504;48.336;14.472;2023-06-22T11:24:43;4.97;;;2.30;;
63370;SDS011;49504;48.336;14.472;2023-06-22T11:28:04;4.05;;;2.00;;
63370;SDS011;49504;48.336;14.472;2023-06-22T11:31:25;3.75;;;1.77;;
63370;SDS011;49504;48.336;14.472;2023-06-22T11:34:47;3.10;;;1.25;;
63370;SDS011;49504;48.336;14.472;2023-06-22T11:38:09;3.65;;;1.65;;
63370;SDS011;49504;48.336;14.472;2023-06-22T11:41:30;3.58;;;1.42;;
63370;SDS011;49504;48.336;14.472;2023-06-22T11:44:52;4.05;;;1.88;;
63370;SDS011;49504;48.336;14.472;2023-06-22T11:48:13;4.45;;;1.73;;
63370;SDS011;49504;48.336;14.472;2023-06-22T11:51:34;3.92;;;2.00;;
63370;SDS011;49504;48.336;14.472;2023-06-22T11:58:33;4.03;;;1.60;;
63370;SDS011;49504;48.336;14.472;2023-06-22T12:01:54;10.50;;;2.20;;
63370;SDS011;49504;48.336;14.472;2023-06-22T12:05:15;7.03;;;3.10;;
63370;SDS011;49504;48.336;14.472;2023-06-22T12:08:37;8.32;;;3.40;;
63370;SDS011;49504;48.336;14.472;2023-06-22T12:11:59;7.18;;;3.70;;
63370;SDS011;49504;48.336;14.472;2023-06-22T12:15:20;6.30;;;3.75;;
63370;SDS011;49504;48.336;14.472;2023-06-22T12:18:42;7.05;;;4.07;;
63370;SDS011;49504;48.336;14.472;2023-06-22T12:22:03;6.80;;;4.28;;
63370;SDS011;49504;48.336;14.472;2023-06-22T12:25:24;11.57;;;5.55;;
63370;SDS011;49504;48.336;14.472;2023-06-22T12:28:47;9.55;;;6.00;;
63370;SDS011;49504;48.336;14.472;2023-06-22T12:32:08;13.15;;;5.72;;
63370;SDS011;49504;48.336;14.472;2023-06-22T12:35:29;9.02;;;3.50;;
63370;SDS011;49504;48.336;14.472;2023-06-22T12:38:50;7.85;;;3.42;;
63370;SDS011;49504;48.336;14.472;2023-06-22T12:42:12;6.65;;;2.83;;
63370;SDS011;49504;48.336;14.472;2023-06-22T12:45:35;5.13;;;2.50;;
63370;SDS011;49504;48.336;14.472;2023-06-22T12:48:56;5.93;;;2.80;;
63370;SDS011;49504;48.336;14.472;2023-06-22T12:52:17;4.95;;;2.60;;
63370;SDS011;49504;48.336;14.472;2023-06-22T12:55:40;4.97;;;2.80;;
63370;SDS011;49504;48.336;14.472;2023-06-22T12:59:01;4.82;;;2.35;;
63370;SDS011;49504;48.336;14.472;2023-06-22T13:02:27;5.30;;;2.33;;
63370;SDS011;49504;48.336;14.472;2023-06-22T13:05:48;5.53;;;2.28;;
63370;SDS011;49504;48.336;14.472;2023-06-22T13:09:11;4.35;;;2.33;;
63370;SDS011;49504;48.336;14.472;2023-06-22T13:12:36;4.32;;;1.95;;
63370;SDS011;49504;48.336;14.472;2023-06-22T13:16:02;4.35;;;1.73;;
63370;SDS011;49504;48.336;14.472;2023-06-22T13:19:27;4.30;;;1.77;;
63370;SDS011;49504;48.336;14.472;2023-06-22T13:22:48;6.78;;;2.78;;
63370;SDS011;49504;48.336;14.472;2023-06-22T13:26:09;4.63;;;1.90;;
63370;SDS011;49504;48.336;14.472;2023-06-22T13:29:31;5.22;;;2.50;;
63370;SDS011;49504;48.336;14.472;2023-06-22T13:32:52;5.93;;;2.45;;
63370;SDS011;49504;48.336;14.472;2023-06-22T13:36:14;4.82;;;2.15;;
63370;SDS011;49504;48.336;14.472;2023-06-22T13:39:35;4.68;;;1.75;;
63370;SDS011;49504;48.336;14.472;2023-06-22T13:42:57;6.05;;;2.17;;
63370;SDS011;49504;48.336;14.472;2023-06-22T13:46:18;4.13;;;2.00;;
63370;SDS011;49504;48.336;14.472;2023-06-22T13:49:39;5.70;;;2.22;;
63370;SDS011;49504;48.336;14.472;2023-06-22T13:53:01;5.32;;;2.20;;
63370;SDS011;49504;48.336;14.472;2023-06-22T13:56:22;5.35;;;2.20;;
63370;SDS011;49504;48.336;14.472;2023-06-22T13:59:44;4.32;;;1.92;;
63370;SDS011;49504;48.336;14.472;2023-06-22T14:03:05;3.88;;;1.90;;
63370;SDS011;49504;48.336;14.472;2023-06-22T14:08:26;4.10;;;1.88;;
63370;SDS011;49504;48.336;14.472;2023-06-22T14:11:47;5.43;;;2.05;;
63370;SDS011;49504;48.336;14.472;2023-06-22T14:15:08;4.85;;;2.00;;
63370;SDS011;49504;48.336;14.472;2023-06-22T14:18:29;5.22;;;1.80;;
63370;SDS011;49504;48.336;14.472;2023-06-22T14:21:50;5.47;;;2.03;;
63370;SDS011;49504;48.336;14.472;2023-06-22T14:25:13;3.67;;;1.70;;
63370;SDS011;49504;48.336;14.472;2023-06-22T14:28:34;5.72;;;1.90;;
63370;SDS011;49504;48.336;14.472;2023-06-22T14:31:55;5.18;;;2.20;;
63370;SDS011;49504;48.336;14.472;2023-06-22T14:35:17;4.68;;;1.83;;
63370;SDS011;49504;48.336;14.472;2023-06-22T14:38:38;4.53;;;2.05;;
63370;SDS011;49504;48.336;14.472;2023-06-22T14:42:01;5.65;;;2.55;;
63370;SDS011;49504;48.336;14.472;2023-06-22T14:45:23;6.57;;;2.42;;
63370;SDS011;49504;48.336;14.472;2023-06-22T14:48:48;4.55;;;2.08;;
63370;SDS011;49504;48.336;14.472;2023-06-22T14:52:09;5.43;;;2.65;;
63370;SDS011;49504;48.336;14.472;2023-06-22T14:55:30;4.93;;;2.38;;
63370;SDS011;49504;48.336;14.472;2023-06-22T14:58:53;4.28;;;2.13;;
63370;SDS011;49504;48.336;14.472;2023-06-22T15:02:14;4.22;;;2.20;;
63370;SDS011;49504;48.336;14.472;2023-06-22T15:05:39;4.78;;;2.30;;
63370;SDS011;49504;48.336;14.472;2023-06-22T15:09:04;6.03;;;2.53;;
63370;SDS011;49504;48.336;14.472;2023-06-22T15:12:28;4.53;;;2.10;;
63370;SDS011;49504;48.336;14.472;2023-06-22T15:15:52;5.60;;;2.55;;
63370;SDS011;49504;48.336;14.472;2023-06-22T15:19:14;4.10;;;1.75;;
63370;SDS011;49504;48.336;14.472;2023-06-22T15:22:35;6.90;;;2.80;;
63370;SDS011;49504;48.336;14.472;2023-06-22T15:25:56;5.22;;;2.30;;
63370;SDS011;49504;48.336;14.472;2023-06-22T15:29:18;5.00;;;2.08;;
63370;SDS011;49504;48.336;14.472;2023-06-22T15:32:42;5.35;;;2.58;;
63370;SDS011;49504;48.336;14.472;2023-06-22T15:36:04;4.93;;;2.13;;
63370;SDS011;49504;48.336;14.472;2023-06-22T15:39:26;7.22;;;2.25;;
63370;SDS011;49504;48.336;14.472;2023-06-22T15:42:49;5.43;;;2.67;;
63370;SDS011;49504;48.336;14.472;2023-06-22T15:46:11;4.22;;;2.22;;
63370;SDS011;49504;48.336;14.472;2023-06-22T15:49:35;5.32;;;2.30;;
63370;SDS011;49504;48.336;14.472;2023-06-22T15:52:56;5.68;;;2.42;;
63370;SDS011;49504;48.336;14.472;2023-06-22T15:56:17;5.55;;;2.50;;
63370;SDS011;49504;48.336;14.472;2023-06-22T15:59:39;4.90;;;2.47;;
63370;SDS011;49504;48.336;14.472;2023-06-22T16:06:11;5.30;;;2.33;;
63370;SDS011;49504;48.336;14.472;2023-06-22T16:09:32;5.20;;;2.80;;
63370;SDS011;49504;48.336;14.472;2023-06-22T16:12:53;4.65;;;1.85;;
63370;SDS011;49504;48.336;14.472;2023-06-22T16:16:15;5.78;;;3.20;;
63370;SDS011;49504;48.336;14.472;2023-06-22T16:19:36;7.60;;;2.40;;
63370;SDS011;49504;48.336;14.472;2023-06-22T16:22:59;4.90;;;2.28;;
63370;SDS011;49504;48.336;14.472;2023-06-22T16:26:22;4.63;;;2.25;;
63370;SDS011;49504;48.336;14.472;2023-06-22T16:29:44;3.67;;;1.88;;
63370;SDS011;49504;48.336;14.472;2023-06-22T16:33:05;4.93;;;2.15;;
63370;SDS011;49504;48.336;14.472;2023-06-22T16:36:27;7.93;;;2.55;;
63370;SDS011;49504;48.336;14.472;2023-06-22T16:39:49;5.78;;;2.17;;
63370;SDS011;49504;48.336;14.472;2023-06-22T16:45:43;4.60;;;2.65;;
63370;SDS011;49504;48.336;14.472;2023-06-22T16:49:05;5.07;;;2.40;;
63370;SDS011;49504;48.336;14.472;2023-06-22T16:52:26;5.32;;;2.20;;
63370;SDS011;49504;48.336;14.472;2023-06-22T16:55:47;4.60;;;2.13;;
63370;SDS011;49504;48.336;14.472;2023-06-22T16:59:09;4.95;;;2.13;;
63370;SDS011;49504;48.336;14.472;2023-06-22T17:02:32;5.50;;;2.25;;
63370;SDS011;49504;48.336;14.472;2023-06-22T17:05:55;5.60;;;2.00;;
63370;SDS011;49504;48.336;14.472;2023-06-22T17:09:17;4.53;;;1.88;;
63370;SDS011;49504;48.336;14.472;2023-06-22T17:12:39;4.38;;;2.00;;
63370;SDS011;49504;48.336;14.472;2023-06-22T17:16:01;3.92;;;1.95;;
63370;SDS011;49504;48.336;14.472;2023-06-22T17:19:26;3.90;;;2.10;;
63370;SDS011;49504;48.336;14.472;2023-06-22T17:22:48;5.25;;;2.38;;
63370;SDS011;49504;48.336;14.472;2023-06-22T17:26:13;5.68;;;2.30;;
63370;SDS011;49504;48.336;14.472;2023-06-22T17:29:35;6.32;;;2.15;;
63370;SDS011;49504;48.336;14.472;2023-06-22T17:32:57;5.68;;;2.55;;
63370;SDS011;49504;48.336;14.472;2023-06-22T17:36:19;5.57;;;2.80;;
63370;SDS011;49504;48.336;14.472;2023-06-22T17:39:41;5.25;;;2.35;;
63370;SDS011;49504;48.336;14.472;2023-06-22T17:43:12;3.95;;;1.85;;
63370;SDS011;49504;48.336;14.472;2023-06-22T17:46:34;4.82;;;2.08;;
63370;SDS011;49504;48.336;14.472;2023-06-22T17:50:03;4.93;;;2.28;;
63370;SDS011;49504;48.336;14.472;2023-06-22T17:53:27;4.82;;;2.60;;
63370;SDS011;49504;48.336;14.472;2023-06-22T17:56:49;5.25;;;2.28;;
63370;SDS011;49504;48.336;14.472;2023-06-22T18:00:11;4.50;;;2.22;;
63370;SDS011;49504;48.336;14.472;2023-06-22T18:03:33;5.93;;;2.45;;
63370;SDS011;49504;48.336;14.472;2023-06-22T18:06:55;5.63;;;2.25;;
63370;SDS011;49504;48.336;14.472;2023-06-22T18:10:19;5.63;;;2.63;;
63370;SDS011;49504;48.336;14.472;2023-06-22T18:13:40;4.68;;;2.47;;
63370;SDS011;49504;48.336;14.472;2023-06-22T18:17:03;4.72;;;2.00;;
63370;SDS011;49504;48.336;14.472;2023-06-22T18:22:16;5.50;;;2.60;;
63370;SDS011;49504;48.336;14.472;2023-06-22T18:37:12;5.97;;;2.55;;
63370;SDS011;49504;48.336;14.472;2023-06-22T18:40:35;4.85;;;2.22;;
63370;SDS011;49504;48.336;14.472;2023-06-22T18:43:58;3.97;;;2.22;;
63370;SDS011;49504;48.336;14.472;2023-06-22T18:47:27;5.77;;;2.90;;
63370;SDS011;49504;48.336;14.472;2023-06-22T18:50:48;5.57;;;2.58;;
63370;SDS011;49504;48.336;14.472;2023-06-22T18:54:16;5.28;;;2.83;;
63370;SDS011;49504;48.336;14.472;2023-06-22T18:57:40;5.05;;;2.65;;
63370;SDS011;49504;48.336;14.472;2023-06-22T19:01:14;5.22;;;2.63;;
63370;SDS011;49504;48.336;14.472;2023-06-22T19:04:36;4.88;;;2.45;;
63370;SDS011;49504;48.336;14.472;2023-06-22T19:07:58;5.78;;;2.70;;
63370;SDS011;49504;48.336;14.472;2023-06-22T19:11:22;5.38;;;2.45;;
63370;SDS011;49504;48.336;14.472;2023-06-22T19:15:03;4.70;;;2.42;;
63370;SDS011;49504;48.336;14.472;2023-06-22T19:18:32;7.28;;;2.97;;
63370;SDS011;49504;48.336;14.472;2023-06-22T19:21:59;5.03;;;2.83;;
63370;SDS011;49504;48.336;14.472;2023-06-22T19:25:21;5.25;;;2.47;;
63370;SDS011;49504;48.336;14.472;2023-06-22T19:28:48;5.20;;;2.50;;
63370;SDS011;49504;48.336;14.472;2023-06-22T19:32:10;6.40;;;2.63;;
63370;SDS011;49504;48.336;14.472;2023-06-22T19:35:32;5.88;;;2.47;;
63370;SDS011;49504;48.336;14.472;2023-06-22T19:38:53;6.65;;;2.80;;
63370;SDS011;49504;48.336;14.472;2023-06-22T19:42:14;4.55;;;2.40;;
63370;SDS011;49504;48.336;14.472;2023-06-22T19:45:39;5.30;;;2.42;;
63370;SDS011;49504;48.336;14.472;2023-06-22T19:49:01;6.90;;;2.42;;
63370;SDS011;49504;48.336;14.472;2023-06-22T19:52:22;5.65;;;2.85;;
63370;SDS011;49504;48.336;14.472;2023-06-22T19:55:47;4.18;;;2.20;;
63370;SDS011;49504;48.336;14.472;2023-06-22T19:59:10;5.05;;;2.40;;
63370;SDS011;49504;48.336;14.472;2023-06-22T20:02:34;4.72;;;2.53;;
63370;SDS011;49504;48.336;14.472;2023-06-22T20:05:55;4.68;;;2.30;;
63370;SDS011;49504;48.336;14.472;2023-06-22T20:09:29;4.75;;;2.53;;
63370;SDS011;49504;48.336;14.472;2023-06-22T20:12:50;4.53;;;2.35;;
63370;SDS011;49504;48.336;14.472;2023-06-22T20:16:13;4.75;;;2.47;;
63370;SDS011;49504;48.336;14.472;2023-06-22T20:19:35;4.85;;;2.35;;
63370;SDS011;49504;48.336;14.472;2023-06-22T20:22:57;4.15;;;2.13;;
63370;SDS011;49504;48.336;14.472;2023-06-22T20:26:19;4.55;;;2.38;;
63370;SDS011;49504;48.336;14.472;2023-06-22T20:29:41;3.83;;;2.10;;